Ecokeeper — SVTY — position and weather

sailwx.info

Track history (hours):
 
Tides and Currents Weather Stations Pressure Air Temp Water Temp Dewpoint Dewpoint Depression Visibility Wind Speed Wind Dir Waves Ship Positions

Ecokeeper

Last reported at 2015-Mar-31 13:08 UTC. Time now 2015-Apr-01 14:30 UTC.
Position N 37°57' E 023°34'.

Length 90 m; draft 5.5 m.

Type: Tanker. MMSI: 240689000.

Date/timePositionNaut miles runAvg speedWind from/ knotsBaromVisibWave heightAir tempDewpointWater temp
2015-Mar-31 13:08N 37°57' E 023°34'1 1.8
2015-Mar-31 12:33N 37°56' E 023°35'7 6.8
2015-Mar-31 11:33N 37°51' E 023°30'0 0.1
2015-Mar-31 10:34N 37°51' E 023°30'0 0.1
2015-Mar-31 09:33N 37°51' E 023°30'0 0.0
2015-Mar-31 08:33N 37°51' E 023°30'0 0.0
2015-Mar-31 07:33N 37°51' E 023°30'0 0.0
2015-Mar-31 06:33N 37°51' E 023°30'6 5.7
2015-Mar-31 05:33N 37°56' E 023°34'  
2015-Mar-24 23:06N 37°57' E 023°34'1 1.3
2015-Mar-24 22:33N 37°57' E 023°35'6 5.9
2015-Mar-24 21:33N 37°52' E 023°32'0 0.1
2015-Mar-24 20:33N 37°52' E 023°32'0 0.1
2015-Mar-24 19:33N 37°52' E 023°32'0 0.0
2015-Mar-24 18:33N 37°52' E 023°32'0 0.2
2015-Mar-24 17:33N 37°52' E 023°32'0 0.1
2015-Mar-24 16:33N 37°52' E 023°32'2 1.6
2015-Mar-24 15:33N 37°53' E 023°33'4 4.1
2015-Mar-24 14:33N 37°57' E 023°34'0 0.0
2015-Mar-24 13:33N 37°57' E 023°34'0 0.0
2015-Mar-24 12:33N 37°57' E 023°34'0 0.0
2015-Mar-24 11:33N 37°57' E 023°34'0 0.0
2015-Mar-24 10:33N 37°57' E 023°34'0 0.0
2015-Mar-24 09:33N 37°57' E 023°34'0 0.0
2015-Mar-24 08:33N 37°57' E 023°34'0 0.0
2015-Mar-23 14:13N 37°57' E 023°34'1 2.0
2015-Mar-23 13:33N 37°56' E 023°34'3 3.1
2015-Mar-23 12:32N 37°53' E 023°31'0 0.0
2015-Mar-23 11:33N 37°53' E 023°31'0 0.0
2015-Mar-23 10:31N 37°53' E 023°31'0 0.0
2015-Mar-23 09:34N 37°53' E 023°31'0 0.0
2015-Mar-23 08:34N 37°53' E 023°31'0 0.2
2015-Mar-23 07:32N 37°53' E 023°31'4 4.3
2015-Mar-23 06:32N 37°57' E 023°34'  
Track history (hours):
 
Tides and Currents Weather Stations Pressure Air Temp Water Temp Dewpoint Dewpoint Depression Visibility Wind Speed Wind Dir Waves Ship Positions

Ecokeeper

Last reported at 2015-Mar-31 13:08 UTC. Time now 2015-Apr-01 14:30 UTC.
Position N 37°57' E 023°34'.

Length 90 m; draft 5.5 m.

Type: Tanker. MMSI: 240689000.

Date/timePositionNaut miles runAvg speedWind from/ knotsBaromVisibWave heightAir tempDewpointWater temp
2015-Mar-31 13:08N 37°57' E 023°34'1 1.8
2015-Mar-31 12:33N 37°56' E 023°35'7 6.8
2015-Mar-31 11:33N 37°51' E 023°30'0 0.1
2015-Mar-31 10:34N 37°51' E 023°30'0 0.1
2015-Mar-31 09:33N 37°51' E 023°30'0 0.0
2015-Mar-31 08:33N 37°51' E 023°30'0 0.0
2015-Mar-31 07:33N 37°51' E 023°30'0 0.0
2015-Mar-31 06:33N 37°51' E 023°30'6 5.7
2015-Mar-31 05:33N 37°56' E 023°34'  
2015-Mar-24 23:06N 37°57' E 023°34'1 1.3
2015-Mar-24 22:33N 37°57' E 023°35'6 5.9
2015-Mar-24 21:33N 37°52' E 023°32'0 0.1
2015-Mar-24 20:33N 37°52' E 023°32'0 0.1
2015-Mar-24 19:33N 37°52' E 023°32'0 0.0
2015-Mar-24 18:33N 37°52' E 023°32'0 0.2
2015-Mar-24 17:33N 37°52' E 023°32'0 0.1
2015-Mar-24 16:33N 37°52' E 023°32'2 1.6
2015-Mar-24 15:33N 37°53' E 023°33'4 4.1
2015-Mar-24 14:33N 37°57' E 023°34'0 0.0
2015-Mar-24 13:33N 37°57' E 023°34'0 0.0
2015-Mar-24 12:33N 37°57' E 023°34'0 0.0
2015-Mar-24 11:33N 37°57' E 023°34'0 0.0
2015-Mar-24 10:33N 37°57' E 023°34'0 0.0
2015-Mar-24 09:33N 37°57' E 023°34'0 0.0
2015-Mar-24 08:33N 37°57' E 023°34'0 0.0
2015-Mar-23 14:13N 37°57' E 023°34'1 2.0
2015-Mar-23 13:33N 37°56' E 023°34'3 3.1
2015-Mar-23 12:32N 37°53' E 023°31'0 0.0
2015-Mar-23 11:33N 37°53' E 023°31'0 0.0
2015-Mar-23 10:31N 37°53' E 023°31'0 0.0
2015-Mar-23 09:34N 37°53' E 023°31'0 0.0
2015-Mar-23 08:34N 37°53' E 023°31'0 0.2
2015-Mar-23 07:32N 37°53' E 023°31'4 4.3
2015-Mar-23 06:32N 37°57' E 023°34'  

Dump ship's entire track history